Main page
METAR-TAF:

METAR-TAF

Airports :

Wick Airport

Wick, Scotland

latitude: 58-27N, longitude: 003-05W, elevation: 39 m

Current weather observation

The report was made 13 minutes ago, at 19:50 UTC
Wind 4 kt from the South
Temperature 8°C
Humidity 87%
Pressure 1027 hPa
Visibility 10 km or more

METAR: EGPC 221950Z AUTO 18004KT 9999 NCD 08/06 Q1027

Time: 20:03 (20:03 UTC)

Forecast

The report was made 3 hours and 4 minutes ago, at 16:59 UTC
Forecast valid from 22 at 18 UTC to 23 at 03 UTC
Wind 9 kt from the Southwest
Visibility 10 km or more
Scattered clouds at a height of 2000 ft
Temporary
from 22 at 18 UTC to 22 at 24 UTC
Broken clouds at a height of 1200 ft
Probability 30% :
Temporary
from 22 at 18 UTC to 22 at 21 UTC
Visibility: 6000 m
Broken clouds at a height of 900 ft
light rain, drizzle

TAF: EGPC 221659Z 2218/2303 22009KT 9999 SCT020 TEMPO 2218/2224 BKN012 PROB30 TEMPO 2218/2221 6000 -RADZ BKN009

Weather observations and forecasts of more than 4000 airports (METAR and TAF reports).

The available stations are represented by yellow and red dots on the map.

Hover mouse over dot to see the name of the station.

Then click to see weather observations and forecasts.

To change the map : click on the green buttons with a black cross to zoom in, on the green button with a dash to zoom out, or on the green arrows for adjacent maps.


METAR-TAF: